createdAt,value
2023-03-26T00:00:55.907Z,66.36
2023-03-26T00:03:50.849Z,66.45
2023-03-26T00:06:42.657Z,66.35
2023-03-26T00:09:33.447Z,66.87
2023-03-26T00:12:28.363Z,66.89
2023-03-26T00:15:16.685Z,67.02
2023-03-26T00:18:03.441Z,66.41
2023-03-26T00:20:53.238Z,66.70
2023-03-26T00:23:41.491Z,66.75
2023-03-26T00:26:28.818Z,66.86
2023-03-26T00:29:17.241Z,67.73
2023-03-26T00:32:10.986Z,68.48
2023-03-26T00:35:03.038Z,69.04
2023-03-26T00:37:52.719Z,68.87
2023-03-26T00:40:39.170Z,68.76
2023-03-26T00:43:26.794Z,68.88
2023-03-26T00:46:13.798Z,68.55
2023-03-26T00:49:05.252Z,69.24
2023-03-26T00:51:53.096Z,69.24
2023-03-26T00:54:43.794Z,69.20
2023-03-26T00:57:35.895Z,68.38
2023-03-26T01:00:37.892Z,68.47
2023-03-26T01:03:28.283Z,69.35
2023-03-26T01:06:22.668Z,68.55
2023-03-26T01:09:17.645Z,67.87
2023-03-26T01:12:06.012Z,67.57
2023-03-26T01:14:56.793Z,66.74
2023-03-26T01:17:44.616Z,65.63
2023-03-26T01:20:36.802Z,66.13
2023-03-26T01:23:37.108Z,66.52
2023-03-26T01:26:47.316Z,65.50
2023-03-26T01:29:41.583Z,66.21
2023-03-26T01:32:49.765Z,65.49
2023-03-26T01:35:50.468Z,66.46
2023-03-26T01:38:49.594Z,66.38
2023-03-26T01:41:48.199Z,65.02
2023-03-26T01:44:44.327Z,66.25
2023-03-26T01:47:33.511Z,66.33
2023-03-26T01:50:22.164Z,66.99
2023-03-26T01:53:13.599Z,67.43
2023-03-26T01:56:14.577Z,66.90
2023-03-26T01:59:24.545Z,68.16
2023-03-26T02:02:16.577Z,68.68
2023-03-26T02:05:15.616Z,68.54
2023-03-26T02:08:16.249Z,68.61
2023-03-26T02:11:05.428Z,69.14
2023-03-26T02:13:54.597Z,69.35
2023-03-26T02:16:48.090Z,69.83
2023-03-26T02:19:37.799Z,70.01
2023-03-26T02:22:23.790Z,70.55
2023-03-26T02:25:13.854Z,70.40
2023-03-26T02:28:03.109Z,71.71
2023-03-26T02:30:59.870Z,70.92
2023-03-26T02:33:52.553Z,71.40
2023-03-26T02:36:41.515Z,71.91
2023-03-26T02:39:32.415Z,72.34
2023-03-26T02:42:18.153Z,72.37
2023-03-26T02:45:10.549Z,73.78
2023-03-26T02:48:00.056Z,73.71
2023-03-26T02:50:55.844Z,74.43
2023-03-26T02:53:44.277Z,74.67
2023-03-26T02:56:33.572Z,74.42
2023-03-26T02:59:22.482Z,74.28
2023-03-26T03:02:16.560Z,73.37
2023-03-26T03:05:09.326Z,74.57
2023-03-26T03:08:00.761Z,75.34
2023-03-26T03:11:01.530Z,74.90
2023-03-26T03:13:48.259Z,75.81
2023-03-26T03:16:34.327Z,75.68
2023-03-26T03:19:21.554Z,75.40
2023-03-26T03:22:09.437Z,74.99
2023-03-26T03:25:01.106Z,74.66
2023-03-26T03:27:49.715Z,75.34
2023-03-26T03:30:37.721Z,74.67
2023-03-26T03:33:23.955Z,74.19
2023-03-26T03:36:20.922Z,74.56
2023-03-26T03:39:11.100Z,73.56
2023-03-26T03:42:03.349Z,73.57
2023-03-26T03:44:54.412Z,73.66
2023-03-26T03:47:41.349Z,74.04
2023-03-26T03:50:30.062Z,75.27
2023-03-26T03:53:22.701Z,74.91
2023-03-26T03:56:15.199Z,75.19
2023-03-26T03:59:08.548Z,74.82
2023-03-26T04:01:55.702Z,75.65
2023-03-26T04:04:44.715Z,75.22
2023-03-26T04:07:34.223Z,75.29
2023-03-26T04:10:23.478Z,74.48
2023-03-26T04:13:11.042Z,73.74
2023-03-26T04:16:03.586Z,73.65
2023-03-26T04:18:52.609Z,72.63
2023-03-26T04:21:44.533Z,73.60
2023-03-26T04:24:36.560Z,73.15
2023-03-26T04:27:26.496Z,72.77
2023-03-26T04:30:22.272Z,71.48
2023-03-26T04:33:17.222Z,72.13
2023-03-26T04:36:08.889Z,72.00
2023-03-26T04:38:57.359Z,72.22
2023-03-26T04:41:46.085Z,72.18
2023-03-26T04:44:37.038Z,71.81
2023-03-26T04:47:27.534Z,71.47
2023-03-26T04:50:18.805Z,71.00
2023-03-26T04:53:06.592Z,71.23
2023-03-26T04:56:02.429Z,70.24
2023-03-26T04:58:52.684Z,70.35
2023-03-26T05:01:42.742Z,69.89
2023-03-26T05:04:32.916Z,70.22
2023-03-26T05:07:27.626Z,70.08
2023-03-26T05:10:22.149Z,69.83
2023-03-26T05:13:10.602Z,70.10
2023-03-26T05:15:57.338Z,69.42
2023-03-26T05:18:49.986Z,69.97
2023-03-26T05:21:36.283Z,69.19
2023-03-26T05:24:28.610Z,68.64
2023-03-26T05:27:18.712Z,67.74
2023-03-26T05:30:07.566Z,66.97
2023-03-26T05:32:55.017Z,67.15
2023-03-26T05:35:45.830Z,66.47
2023-03-26T05:38:34.333Z,67.99
2023-03-26T05:41:24.689Z,66.10
2023-03-26T05:44:18.664Z,66.69
2023-03-26T05:47:05.500Z,66.10
2023-03-26T05:49:55.833Z,65.21
2023-03-26T05:52:43.869Z,63.64
2023-03-26T05:55:33.285Z,63.54
2023-03-26T05:58:26.401Z,62.33
2023-03-26T06:01:18.491Z,62.44
2023-03-26T06:04:09.947Z,60.77
2023-03-26T06:06:58.144Z,61.01
2023-03-26T06:09:48.775Z,56.88
2023-03-26T06:12:39.765Z,47.81
2023-03-26T06:15:29.052Z,40.77
2023-03-26T06:18:19.171Z,36.09
2023-03-26T06:21:11.078Z,32.33
2023-03-26T06:23:59.847Z,31.10
2023-03-26T06:26:50.184Z,28.17
2023-03-26T06:29:42.076Z,26.19
2023-03-26T06:32:33.654Z,23.94
2023-03-26T06:35:21.286Z,22.93
2023-03-26T06:38:10.589Z,23.09
2023-03-26T06:41:03.674Z,23.58
2023-03-26T06:43:52.062Z,22.65
2023-03-26T06:46:44.309Z,19.99
2023-03-26T06:49:35.108Z,17.80
2023-03-26T06:52:24.598Z,17.89
2023-03-26T06:55:13.860Z,17.88
2023-03-26T06:58:04.135Z,16.43
2023-03-26T07:00:56.892Z,15.96
2023-03-26T07:03:46.188Z,16.03
2023-03-26T07:06:39.579Z,16.37
2023-03-26T07:09:27.891Z,16.20
2023-03-26T07:12:16.693Z,15.44
2023-03-26T07:15:04.980Z,15.15
2023-03-26T07:17:53.462Z,15.61
2023-03-26T07:20:44.325Z,14.34
2023-03-26T07:23:35.534Z,13.81
2023-03-26T07:26:35.122Z,14.54
2023-03-26T07:29:29.752Z,13.42
2023-03-26T07:32:24.746Z,14.28
2023-03-26T07:35:17.874Z,13.48
2023-03-26T07:38:25.205Z,12.65
2023-03-26T07:41:20.492Z,13.22
2023-03-26T07:44:33.041Z,12.49
2023-03-26T07:47:33.189Z,12.57
2023-03-26T07:50:22.869Z,12.88
2023-03-26T07:53:10.630Z,12.09
2023-03-26T07:56:08.808Z,11.91
2023-03-26T07:59:12.483Z,11.98
2023-03-26T08:02:23.872Z,12.02
2023-03-26T08:05:23.730Z,12.76
2023-03-26T08:08:23.670Z,12.38
2023-03-26T08:11:20.397Z,12.13
2023-03-26T08:14:35.505Z,11.55
2023-03-26T08:17:38.101Z,11.64
2023-03-26T08:20:36.914Z,11.72
2023-03-26T08:23:35.849Z,11.70
2023-03-26T08:26:49.202Z,11.70
2023-03-26T08:29:48.305Z,11.46
2023-03-26T08:32:40.180Z,11.72
2023-03-26T08:35:28.411Z,11.62
2023-03-26T08:38:20.447Z,10.66
2023-03-26T08:41:39.659Z,11.29
2023-03-26T08:45:18.738Z,10.09
2023-03-26T08:48:44.942Z,9.93
2023-03-26T08:52:08.705Z,9.66
2023-03-26T08:55:26.486Z,9.01
2023-03-26T08:59:01.662Z,9.49
2023-03-26T09:02:21.061Z,9.61
2023-03-26T09:05:35.388Z,9.95
2023-03-26T09:09:19.322Z,9.30
2023-03-26T09:12:53.865Z,12.55
2023-03-26T09:16:25.355Z,10.32
2023-03-26T09:19:40.892Z,13.49
2023-03-26T09:22:59.125Z,12.46
2023-03-26T09:26:07.834Z,14.94
2023-03-26T09:29:24.698Z,13.29
2023-03-26T09:32:53.390Z,11.33
2023-03-26T09:35:57.816Z,10.16
2023-03-26T09:38:47.682Z,11.99
2023-03-26T09:41:47.965Z,10.25
2023-03-26T09:45:12.597Z,10.17
2023-03-26T09:48:35.504Z,9.53
2023-03-26T09:51:50.019Z,8.94
2023-03-26T09:55:10.087Z,9.53
2023-03-26T09:58:19.441Z,9.21
2023-03-26T10:01:13.694Z,9.79
2023-03-26T10:04:40.616Z,9.22
2023-03-26T10:07:46.700Z,8.93
2023-03-26T10:10:46.665Z,8.74
2023-03-26T10:13:39.320Z,8.61
2023-03-26T10:16:35.803Z,8.28
2023-03-26T10:19:45.895Z,8.69
2023-03-26T10:22:46.248Z,8.91
2023-03-26T10:26:05.492Z,9.01
2023-03-26T10:29:17.003Z,8.52
2023-03-26T10:32:20.786Z,7.99
2023-03-26T10:35:28.700Z,7.98
2023-03-26T10:38:29.630Z,9.59
2023-03-26T10:41:23.720Z,8.09
2023-03-26T10:44:44.346Z,8.47
2023-03-26T10:47:57.537Z,9.15
2023-03-26T10:50:57.760Z,9.66
2023-03-26T10:53:53.304Z,7.31
2023-03-26T10:56:45.978Z,7.14
2023-03-26T10:59:36.550Z,7.08
2023-03-26T11:02:35.656Z,6.93
2023-03-26T11:05:35.912Z,7.67
2023-03-26T11:08:36.744Z,7.21
2023-03-26T11:11:31.444Z,7.35
2023-03-26T11:14:34.318Z,8.28
2023-03-26T11:17:40.690Z,8.49
2023-03-26T11:20:38.334Z,8.17
2023-03-26T11:23:38.668Z,9.17
2023-03-26T11:26:32.248Z,9.20
2023-03-26T11:29:33.601Z,8.93
2023-03-26T11:32:25.057Z,11.49
2023-03-26T11:35:18.032Z,13.88
2023-03-26T11:38:30.557Z,16.77
2023-03-26T11:41:23.026Z,19.18
2023-03-26T11:44:21.932Z,20.30
2023-03-26T11:47:13.467Z,20.23
2023-03-26T11:50:05.190Z,23.12
2023-03-26T11:52:50.067Z,25.02
2023-03-26T11:55:35.861Z,24.41
2023-03-26T11:58:32.057Z,26.23
2023-03-26T12:01:23.878Z,25.47
2023-03-26T12:04:14.637Z,26.81
2023-03-26T12:07:06.506Z,26.76
2023-03-26T12:09:56.666Z,25.87
2023-03-26T12:12:45.421Z,27.00
2023-03-26T12:15:33.046Z,26.79
2023-03-26T12:18:29.247Z,27.82
2023-03-26T12:21:17.670Z,28.79
2023-03-26T12:24:06.048Z,28.85
2023-03-26T12:27:02.817Z,28.94
2023-03-26T12:30:03.012Z,26.39
2023-03-26T12:32:53.089Z,26.91
2023-03-26T12:35:41.567Z,27.14
2023-03-26T12:38:33.556Z,28.38
2023-03-26T12:43:40.263Z,27.49
2023-03-26T12:44:49.866Z,27.15
2023-03-26T12:47:58.515Z,26.51
2023-03-26T12:51:01.296Z,27.47
2023-03-26T12:54:00.730Z,27.68
2023-03-26T12:57:12.132Z,25.77
2023-03-26T13:00:31.039Z,23.73
2023-03-26T13:03:36.633Z,24.28
2023-03-26T13:07:01.735Z,25.66
2023-03-26T13:10:00.732Z,25.38
2023-03-26T13:12:54.704Z,23.90
2023-03-26T13:15:46.621Z,26.88
2023-03-26T13:18:46.322Z,26.84
2023-03-26T13:21:52.314Z,26.04
2023-03-26T13:24:51.667Z,24.64
2023-03-26T13:27:48.905Z,24.47
2023-03-26T13:30:39.706Z,25.44
2023-03-26T13:33:38.199Z,25.99
2023-03-26T13:36:29.543Z,24.10
2023-03-26T13:39:28.992Z,24.54
2023-03-26T13:42:27.025Z,23.68
2023-03-26T13:45:23.684Z,24.85
2023-03-26T13:48:17.013Z,25.38
2023-03-26T13:51:13.420Z,26.36
2023-03-26T13:54:04.427Z,25.41
2023-03-26T13:57:04.584Z,24.33
2023-03-26T13:59:55.013Z,24.27
2023-03-26T14:02:45.005Z,23.91
2023-03-26T14:05:39.541Z,24.19
2023-03-26T14:08:31.760Z,24.39
2023-03-26T14:11:22.929Z,24.40
2023-03-26T14:14:13.266Z,24.12
2023-03-26T14:17:04.184Z,24.61
2023-03-26T14:20:35.178Z,23.07
2023-03-26T14:23:48.962Z,23.37
2023-03-26T14:26:55.440Z,23.21
2023-03-26T14:30:02.305Z,25.14
2023-03-26T14:33:04.604Z,24.86
2023-03-26T14:36:00.126Z,24.39
2023-03-26T14:39:17.100Z,24.07
2023-03-26T14:42:11.234Z,24.83
2023-03-26T14:45:24.520Z,24.82
2023-03-26T14:48:40.229Z,26.27
2023-03-26T14:51:43.142Z,25.03
2023-03-26T14:54:34.743Z,26.18
2023-03-26T14:57:54.883Z,26.81
2023-03-26T15:01:15.771Z,26.81
2023-03-26T15:04:49.094Z,26.39
2023-03-26T15:08:08.262Z,26.67
2023-03-26T15:11:13.783Z,27.75
2023-03-26T15:14:43.065Z,27.79
2023-03-26T15:17:58.685Z,28.50
2023-03-26T15:21:27.545Z,29.44
2023-03-26T15:25:02.760Z,28.36
2023-03-26T15:28:27.363Z,27.68
2023-03-26T15:31:25.616Z,26.69
2023-03-26T15:34:40.068Z,26.79
2023-03-26T15:38:14.854Z,28.00
2023-03-26T15:41:12.561Z,26.67
2023-03-26T15:44:40.994Z,26.71
2023-03-26T15:47:51.760Z,27.74
2023-03-26T15:50:54.630Z,28.01
2023-03-26T15:53:49.630Z,28.10
2023-03-26T15:57:01.077Z,28.73
2023-03-26T15:59:58.150Z,27.33
2023-03-26T16:02:54.548Z,29.00
2023-03-26T16:06:01.207Z,29.05
2023-03-26T16:08:59.104Z,29.30
2023-03-26T16:11:55.076Z,30.25
2023-03-26T16:14:45.495Z,29.04
2023-03-26T16:17:54.137Z,29.21
2023-03-26T16:20:50.996Z,30.13
2023-03-26T16:23:56.175Z,28.82
2023-03-26T16:26:50.543Z,30.15
2023-03-26T16:29:38.496Z,29.20
2023-03-26T16:32:31.210Z,30.26
2023-03-26T16:35:53.780Z,31.87
2023-03-26T16:39:04.774Z,32.28
2023-03-26T16:42:06.879Z,31.63
2023-03-26T16:45:00.316Z,32.04
2023-03-26T16:47:53.305Z,33.18
2023-03-26T16:50:55.000Z,32.54
2023-03-26T16:53:47.106Z,32.48
2023-03-26T16:56:44.412Z,33.35
2023-03-26T17:00:05.421Z,33.71
2023-03-26T17:03:02.517Z,33.40
2023-03-26T17:06:08.113Z,33.41
2023-03-26T17:09:06.999Z,33.46
2023-03-26T17:12:05.013Z,33.06
2023-03-26T17:15:09.045Z,33.08
2023-03-26T17:18:31.914Z,33.72
2023-03-26T17:21:24.390Z,33.55
2023-03-26T17:24:20.072Z,33.76
2023-03-26T17:27:19.422Z,34.09
2023-03-26T17:30:26.809Z,34.37
2023-03-26T17:33:24.090Z,35.96
2023-03-26T17:36:44.432Z,34.63
2023-03-26T17:40:15.023Z,35.18
2023-03-26T17:43:11.997Z,34.80
2023-03-26T17:46:03.669Z,35.00
2023-03-26T17:48:56.723Z,35.06
2023-03-26T17:51:49.624Z,36.55
2023-03-26T17:54:36.444Z,37.20
2023-03-26T17:57:28.996Z,37.45
2023-03-26T18:00:21.140Z,37.76
2023-03-26T18:03:16.889Z,36.82
2023-03-26T18:06:14.480Z,36.66
2023-03-26T18:09:18.666Z,37.32
2023-03-26T18:12:26.476Z,36.98
2023-03-26T18:15:31.809Z,37.21
2023-03-26T18:18:23.246Z,37.08
2023-03-26T18:21:10.201Z,36.31
2023-03-26T18:23:59.533Z,36.55
2023-03-26T18:26:50.012Z,36.53
2023-03-26T18:29:38.403Z,37.01
2023-03-26T18:32:32.440Z,37.31
2023-03-26T18:35:21.612Z,37.97
2023-03-26T18:38:11.727Z,37.94
2023-03-26T18:40:58.492Z,37.76
2023-03-26T18:43:46.220Z,37.34
2023-03-26T18:46:33.591Z,38.07
2023-03-26T18:49:19.558Z,38.52
2023-03-26T18:52:06.002Z,39.34
2023-03-26T18:54:53.820Z,39.21
2023-03-26T18:57:37.970Z,39.66
2023-03-26T19:00:28.771Z,39.09
2023-03-26T19:03:15.919Z,39.01
2023-03-26T19:06:02.601Z,38.96
2023-03-26T19:08:48.336Z,38.43
2023-03-26T19:11:42.272Z,38.42
2023-03-26T19:14:29.757Z,38.36
2023-03-26T19:17:16.502Z,38.80
2023-03-26T19:20:08.753Z,39.20
2023-03-26T19:22:54.751Z,38.70
2023-03-26T19:25:43.673Z,38.87
2023-03-26T19:28:34.930Z,39.38
2023-03-26T19:31:32.418Z,40.01
2023-03-26T19:34:27.617Z,39.65
2023-03-26T19:37:22.146Z,40.09
2023-03-26T19:40:21.512Z,40.20
2023-03-26T19:43:16.176Z,40.30
2023-03-26T19:46:03.366Z,40.23
2023-03-26T19:48:53.068Z,40.35
2023-03-26T19:51:42.930Z,40.35
2023-03-26T19:54:32.168Z,40.42
2023-03-26T19:57:17.913Z,40.17
2023-03-26T20:00:14.510Z,40.16
2023-03-26T20:03:05.768Z,40.40
2023-03-26T20:05:50.305Z,40.17
2023-03-26T20:08:35.019Z,40.66
2023-03-26T20:11:23.674Z,40.57
2023-03-26T20:14:14.805Z,40.50
2023-03-26T20:16:59.054Z,40.94
2023-03-26T20:22:47.643Z,40.00
2023-03-26T20:25:35.314Z,40.06
2023-03-26T20:28:20.655Z,40.62
2023-03-26T20:31:04.379Z,40.76
2023-03-26T20:33:48.455Z,40.33
2023-03-26T20:36:35.357Z,40.22
2023-03-26T20:39:19.730Z,40.59
2023-03-26T20:42:05.082Z,39.96
2023-03-26T20:44:48.560Z,40.06
2023-03-26T20:47:34.485Z,39.50
2023-03-26T20:50:19.027Z,39.47
2023-03-26T20:53:03.106Z,39.71
2023-03-26T20:55:52.793Z,39.75
2023-03-26T20:58:40.926Z,40.20
2023-03-26T21:01:25.126Z,39.96
2023-03-26T21:04:10.227Z,40.19
2023-03-26T21:07:06.978Z,40.62
2023-03-26T21:09:58.124Z,40.96
2023-03-26T21:12:49.339Z,40.95
2023-03-26T21:15:35.265Z,40.99
2023-03-26T21:18:21.240Z,41.69
2023-03-26T21:21:21.825Z,41.60
2023-03-26T21:24:18.744Z,41.08
2023-03-26T21:27:15.864Z,41.37
2023-03-26T21:30:04.311Z,41.96
2023-03-26T21:32:55.584Z,43.70
2023-03-26T21:35:42.538Z,44.52
2023-03-26T21:38:35.366Z,45.37
2023-03-26T21:41:38.852Z,45.40
2023-03-26T21:44:31.909Z,45.52
2023-03-26T21:47:23.046Z,45.18
2023-03-26T21:50:16.064Z,45.48
2023-03-26T21:53:06.674Z,46.03
2023-03-26T21:56:09.840Z,46.39
2023-03-26T21:59:04.581Z,46.52
2023-03-26T22:02:04.051Z,47.02
2023-03-26T22:04:53.690Z,47.85
2023-03-26T22:07:57.646Z,48.14
2023-03-26T22:10:44.764Z,48.98
2023-03-26T22:13:37.633Z,48.54
2023-03-26T22:16:27.500Z,48.22
2023-03-26T22:19:12.804Z,48.02
2023-03-26T22:22:04.284Z,48.19
2023-03-26T22:25:00.579Z,48.03
2023-03-26T22:27:47.356Z,47.93
2023-03-26T22:30:32.070Z,47.45
2023-03-26T22:33:27.524Z,49.40
2023-03-26T22:36:23.301Z,48.00
2023-03-26T22:39:17.701Z,48.22
2023-03-26T22:42:12.502Z,49.26
2023-03-26T22:45:02.506Z,50.13
2023-03-26T22:47:53.068Z,50.63
2023-03-26T22:51:03.216Z,49.74
2023-03-26T22:53:57.059Z,50.41
2023-03-26T22:56:48.314Z,50.51
2023-03-26T22:59:40.909Z,50.17
2023-03-26T23:02:30.940Z,50.06
2023-03-26T23:05:20.013Z,49.95
2023-03-26T23:08:15.044Z,49.57
2023-03-26T23:11:06.034Z,49.93
2023-03-26T23:13:57.331Z,49.26
2023-03-26T23:16:51.293Z,49.36
2023-03-26T23:19:37.771Z,49.25
2023-03-26T23:22:22.828Z,48.58
2023-03-26T23:25:12.270Z,49.32
2023-03-26T23:28:01.456Z,49.54
2023-03-26T23:30:49.824Z,48.37
2023-03-26T23:33:39.404Z,48.42
2023-03-26T23:36:29.946Z,48.70
2023-03-26T23:39:21.294Z,48.18
2023-03-26T23:42:17.608Z,48.06
2023-03-26T23:45:17.891Z,47.32
2023-03-26T23:48:06.548Z,47.16
2023-03-26T23:51:03.282Z,48.65
2023-03-26T23:53:59.947Z,47.49
2023-03-26T23:56:49.837Z,48.02
2023-03-26T23:59:42.751Z,48.48
